createdAt,value
2022-09-23T00:04:31.945Z,5.78
2022-09-23T00:09:56.499Z,5.00
2022-09-23T00:15:21.731Z,4.97
2022-09-23T00:20:45.794Z,5.72
2022-09-23T00:26:12.106Z,5.15
2022-09-23T00:31:37.103Z,4.78
2022-09-23T00:37:00.639Z,4.18
2022-09-23T00:42:26.895Z,4.50
2022-09-23T00:47:55.881Z,5.28
2022-09-23T00:53:22.801Z,5.22
2022-09-23T00:58:47.923Z,5.32
2022-09-23T01:04:14.790Z,4.55
2022-09-23T01:09:38.495Z,4.65
2022-09-23T01:15:11.820Z,4.68
2022-09-23T01:20:59.421Z,4.50
2022-09-23T01:26:43.671Z,4.60
2022-09-23T01:32:14.726Z,4.53
2022-09-23T01:37:46.924Z,4.63
2022-09-23T01:43:14.350Z,4.70
2022-09-23T01:48:42.213Z,3.72
2022-09-23T01:54:11.783Z,4.28
2022-09-23T01:59:39.428Z,4.65
2022-09-23T02:05:09.734Z,4.90
2022-09-23T02:10:37.491Z,4.03
2022-09-23T02:16:04.714Z,4.63
2022-09-23T02:21:35.244Z,3.92
2022-09-23T02:27:09.262Z,4.63
2022-09-23T02:32:37.404Z,4.57
2022-09-23T02:38:17.108Z,4.30
2022-09-23T02:43:47.360Z,4.25
2022-09-23T02:49:13.669Z,4.15
2022-09-23T02:54:39.367Z,3.97
2022-09-23T03:00:03.281Z,5.07
2022-09-23T03:05:31.593Z,4.72
2022-09-23T03:11:04.432Z,4.90
2022-09-23T03:16:35.613Z,4.72
2022-09-23T03:22:03.398Z,5.40
2022-09-23T03:27:33.467Z,4.88
2022-09-23T03:33:00.296Z,5.07
2022-09-23T03:38:27.197Z,4.10
2022-09-23T03:43:53.367Z,4.72
2022-09-23T03:49:19.953Z,4.82
2022-09-23T03:54:43.723Z,4.00
2022-09-23T04:00:10.363Z,4.05
2022-09-23T04:05:37.190Z,5.15
2022-09-23T04:11:01.895Z,4.22
2022-09-23T04:16:27.216Z,4.38
2022-09-23T04:21:50.854Z,5.05
2022-09-23T04:27:14.519Z,4.78
2022-09-23T04:32:39.514Z,4.22
2022-09-23T04:38:03.070Z,4.38
2022-09-23T04:43:26.875Z,4.13
2022-09-23T04:48:51.870Z,4.43
2022-09-23T04:54:15.523Z,4.60
2022-09-23T04:59:39.126Z,4.65
2022-09-23T05:05:04.131Z,5.32
2022-09-23T05:10:27.722Z,5.43
2022-09-23T05:15:51.565Z,6.05
2022-09-23T05:21:18.221Z,5.45
2022-09-23T05:26:42.180Z,6.38
2022-09-23T05:32:06.520Z,5.45
2022-09-23T05:37:33.141Z,6.70
2022-09-23T05:42:57.178Z,9.02
2022-09-23T05:48:21.750Z,11.75
2022-09-23T05:53:47.745Z,13.82
2022-09-23T05:59:11.367Z,18.50
2022-09-23T06:04:34.991Z,17.08
2022-09-23T06:10:00.120Z,13.07
2022-09-23T06:15:24.227Z,8.13
2022-09-23T06:20:48.061Z,7.97
2022-09-23T06:26:15.154Z,6.95
2022-09-23T06:31:39.030Z,6.43
2022-09-23T06:37:13.226Z,7.00
2022-09-23T06:42:41.947Z,7.47
2022-09-23T06:48:08.389Z,7.63
2022-09-23T06:53:33.014Z,8.35
2022-09-23T06:58:58.016Z,7.85
2022-09-23T07:04:23.338Z,8.60
2022-09-23T07:09:49.923Z,7.35
2022-09-23T07:15:17.538Z,7.43
2022-09-23T07:20:41.245Z,6.90
2022-09-23T07:26:05.767Z,8.27
2022-09-23T07:31:38.257Z,8.05
2022-09-23T07:37:03.299Z,7.15
2022-09-23T07:42:27.097Z,8.55
2022-09-23T07:47:52.143Z,6.68
2022-09-23T07:53:16.044Z,6.20
2022-09-23T07:58:39.658Z,6.03
2022-09-23T08:04:06.682Z,5.65
2022-09-23T08:09:33.728Z,6.30
2022-09-23T08:14:57.844Z,4.80
2022-09-23T08:20:36.766Z,5.15
2022-09-23T08:26:04.750Z,4.32
2022-09-23T08:31:28.489Z,5.00
2022-09-23T08:36:53.582Z,4.88
2022-09-23T08:42:35.937Z,5.20
2022-09-23T08:48:10.754Z,5.50
2022-09-23T08:53:38.472Z,4.78
2022-09-23T08:59:10.144Z,6.35
2022-09-23T09:04:41.339Z,6.15
2022-09-23T09:10:16.699Z,5.90
2022-09-23T09:15:45.076Z,5.90
2022-09-23T09:21:13.658Z,5.57
2022-09-23T09:26:41.058Z,6.53
2022-09-23T09:32:17.776Z,5.15
2022-09-23T09:37:47.342Z,5.47
2022-09-23T09:43:23.261Z,5.00
2022-09-23T09:48:53.711Z,5.97
2022-09-23T09:54:23.048Z,5.43
2022-09-23T09:59:48.066Z,5.80
2022-09-23T10:05:27.079Z,5.38
2022-09-23T10:10:54.619Z,5.53
2022-09-23T10:16:19.621Z,4.70
2022-09-23T10:21:43.896Z,4.53
2022-09-23T10:27:11.972Z,4.75
2022-09-23T10:32:38.726Z,4.18
2022-09-23T10:38:02.379Z,3.80
2022-09-23T10:43:46.850Z,3.67
2022-09-23T10:49:40.468Z,3.65
2022-09-23T10:55:17.243Z,3.53
2022-09-23T11:00:51.842Z,2.97
2022-09-23T11:06:27.053Z,3.28
2022-09-23T11:12:01.621Z,3.00
2022-09-23T11:17:39.977Z,3.15
2022-09-23T11:23:29.575Z,2.70
2022-09-23T11:29:11.765Z,2.70
2022-09-23T11:34:54.828Z,2.90
2022-09-23T11:40:26.148Z,3.25
2022-09-23T11:45:58.661Z,3.15
2022-09-23T11:51:29.938Z,3.03
2022-09-23T11:56:59.647Z,3.17
2022-09-23T12:02:30.861Z,1.97
2022-09-23T12:08:01.194Z,3.40
2022-09-23T12:13:40.677Z,2.80
2022-09-23T12:19:16.694Z,2.83
2022-09-23T12:24:48.956Z,3.45
2022-09-23T12:30:19.063Z,18.08
2022-09-23T12:35:45.008Z,17.30
2022-09-23T12:41:28.806Z,3.15
2022-09-23T12:47:38.338Z,11.35
2022-09-23T12:53:53.334Z,7.70
2022-09-23T12:59:28.071Z,33.63
2022-09-23T13:05:15.989Z,3.53
2022-09-23T13:10:44.367Z,2.90
2022-09-23T13:16:14.337Z,3.00
2022-09-23T13:22:11.243Z,3.13
2022-09-23T13:27:36.616Z,2.60
2022-09-23T13:33:10.572Z,1.60
2022-09-23T13:38:35.677Z,1.60
2022-09-23T13:44:00.411Z,1.30
2022-09-23T13:49:26.188Z,1.70
2022-09-23T13:54:51.631Z,1.45
2022-09-23T14:00:21.023Z,1.63
2022-09-23T14:05:45.166Z,1.48
2022-09-23T14:11:16.573Z,1.30
2022-09-23T14:16:42.732Z,1.35
2022-09-23T14:22:11.689Z,1.33
2022-09-23T14:27:37.661Z,1.58
2022-09-23T14:33:05.566Z,1.52
2022-09-23T14:38:49.384Z,1.65
2022-09-23T14:44:22.554Z,1.50
2022-09-23T14:50:09.715Z,1.80
2022-09-23T14:55:33.361Z,1.63
2022-09-23T15:01:00.480Z,1.70
2022-09-23T15:06:24.912Z,2.03
2022-09-23T15:11:48.752Z,1.98
2022-09-23T15:17:27.020Z,2.05
2022-09-23T15:22:53.408Z,2.35
2022-09-23T15:28:22.944Z,2.60
2022-09-23T15:33:48.287Z,2.15
2022-09-23T15:39:13.295Z,2.35
2022-09-23T15:44:38.015Z,2.22
2022-09-23T15:50:03.007Z,2.42
2022-09-23T15:55:26.560Z,2.30
2022-09-23T16:00:55.704Z,2.58
2022-09-23T16:06:21.610Z,2.93
2022-09-23T16:11:47.352Z,2.97
2022-09-23T16:17:13.967Z,2.70
2022-09-23T16:22:39.859Z,3.15
2022-09-23T16:28:04.897Z,2.80
2022-09-23T16:33:28.718Z,3.35
2022-09-23T16:38:55.487Z,3.40
2022-09-23T16:44:19.104Z,2.95
2022-09-23T16:49:42.781Z,3.08
2022-09-23T16:55:09.858Z,3.20
2022-09-23T17:00:50.982Z,4.00
2022-09-23T17:06:15.716Z,6.00
2022-09-23T17:11:41.371Z,7.57
2022-09-23T17:17:04.946Z,7.03
2022-09-23T17:22:48.964Z,7.53
2022-09-23T17:28:14.411Z,8.25
2022-09-23T17:33:38.853Z,7.75
2022-09-23T17:39:02.482Z,7.47
2022-09-23T17:44:27.747Z,7.07
2022-09-23T17:49:51.457Z,9.73
2022-09-23T17:55:16.722Z,8.35
2022-09-23T18:00:41.799Z,7.47
2022-09-23T18:06:10.697Z,6.10
2022-09-23T18:11:36.798Z,5.63
2022-09-23T18:17:01.724Z,5.88
2022-09-23T18:22:25.400Z,7.30
2022-09-23T18:27:49.046Z,7.20
2022-09-23T18:33:15.285Z,6.07
2022-09-23T18:38:39.960Z,6.25
2022-09-23T18:44:04.480Z,7.55
2022-09-23T18:49:46.879Z,5.93
2022-09-23T18:55:10.699Z,7.25
2022-09-23T19:00:37.650Z,6.93
2022-09-23T19:06:09.984Z,7.05
2022-09-23T19:11:36.666Z,7.20
2022-09-23T19:17:00.277Z,6.28
2022-09-23T19:22:26.586Z,6.03
2022-09-23T19:27:50.298Z,6.30
2022-09-23T19:33:13.943Z,6.47
2022-09-23T19:38:39.422Z,6.40
2022-09-23T19:44:05.289Z,7.05
2022-09-23T19:49:31.092Z,7.82
2022-09-23T19:54:56.218Z,7.35
2022-09-23T20:00:20.349Z,7.55
2022-09-23T20:05:54.970Z,8.57
2022-09-23T20:11:27.597Z,9.52
2022-09-23T20:16:53.200Z,8.48
2022-09-23T20:22:29.679Z,7.57
2022-09-23T20:27:58.214Z,7.78
2022-09-23T20:33:22.335Z,7.05
2022-09-23T20:38:46.122Z,6.63
2022-09-23T20:44:13.962Z,6.68
2022-09-23T20:49:38.159Z,6.15
2022-09-23T20:55:02.441Z,7.15
2022-09-23T21:00:28.025Z,7.13
2022-09-23T21:05:51.889Z,6.88
2022-09-23T21:11:20.259Z,6.72
2022-09-23T21:16:45.367Z,6.88
2022-09-23T21:22:10.505Z,7.65
2022-09-23T21:27:34.802Z,6.50
2022-09-23T21:33:01.902Z,8.85
2022-09-23T21:38:25.921Z,14.82
2022-09-23T21:43:50.839Z,32.08
2022-09-23T21:49:18.993Z,33.38
2022-09-23T21:54:42.660Z,24.33
2022-09-23T22:00:07.707Z,22.33
2022-09-23T22:05:33.038Z,18.35
2022-09-23T22:10:56.975Z,16.15
2022-09-23T22:16:23.062Z,15.70
2022-09-23T22:21:50.604Z,12.43
2022-09-23T22:27:19.800Z,10.63
2022-09-23T22:32:43.565Z,9.43
2022-09-23T22:38:08.806Z,9.05
2022-09-23T22:43:33.649Z,7.15
2022-09-23T22:48:57.281Z,6.28
2022-09-23T22:54:22.269Z,5.15
2022-09-23T22:59:48.333Z,4.32
2022-09-23T23:05:14.551Z,5.18
2022-09-23T23:10:39.558Z,4.50
2022-09-23T23:16:05.783Z,5.15
2022-09-23T23:21:29.409Z,4.18
2022-09-23T23:26:54.687Z,3.90
2022-09-23T23:32:18.354Z,4.65
2022-09-23T23:37:42.054Z,4.45
2022-09-23T23:43:07.302Z,5.28
2022-09-23T23:48:31.029Z,4.60
2022-09-23T23:53:55.710Z,3.75
2022-09-23T23:59:20.971Z,3.47
